Moulstown, Pennsylvania
Current Conditions -  °F | °C
As of 2:53 PM on Thursday 20 Nov 2014 (Local Time) from KTHV Reporting Station
Clear Clear  
Wind Chill: 38°   Ceiling: Unl
Heat Index: 45°   Visibility: 10mi
Dew Point: 15°   Wind: 17mph
Humidity: 30%   Direction: 290°WNW
Pressure: 29.88"   Gusts: 23mph
Location:  39.7863°N, 76.988°W
Report Text: KTHV 201953Z AUTO 29015G20KT 10SM CLR 07/M09 A2988 RMK AO2 SLP125 T00721094
Loading
Personal Weather Stations






























Interactive Weather Map New forecast layout! Learn more

10-Day Weather Forecast

Advertisements
Track Severe Weather on mobile